SDF weather

Louisville Muhammad Ali International Airport
Louisville, Kentucky, United States

Public forecast

Using degrees Fahrenheit for public forecast. Weather courtesy of forecast.io.

Current aviation weather report (METAR) for Louisville Muhammad Ali International Airport

Retrieved 2020/06/02 15:56 UTC (45 minutes ago):

KSDF 021556Z 24013G20KT 10SM FEW250 29/14 A3009 RMK AO2 SLP184 T02890144

Aviation forecast (TAF) for Louisville Muhammad Ali International Airport

Retrieved 2020/06/02 12:22 UTC (4 hours ago):

TAF KSDF 021120Z 0212/0318 19006KT P6SM BKN200 FM021400 21010KT P6SM BKN200 FM021600 23012G19KT P6SM SCT100 FM030000 23008KT P6SM SCT250